Time,TemperatureF,DewpointF,PressureIn,WindDirection,WindDirectionDegrees,WindSpeedMPH,WindSpeedGustMPH,Humidity,HourlyPrecipIn,Conditions,Clouds,dailyrainin,SolarRadiationWatts/m^2,SoftwareType,DateUTC
2013-01-28 00:21:00,37.0,28.0,30.12,WNW,302,10.0,13.0,71,-99.99,,,-99.99,0.000000,,2013-01-28 08:21:00,
2013-01-28 00:32:00,37.0,28.0,30.12,WNW,302,10.0,13.0,71,-99.99,,,-99.99,0.000000,,2013-01-28 08:32:00,
2013-01-28 00:40:00,37.0,27.0,30.12,NW,310,11.0,15.0,68,-99.99,,,-99.99,0.000000,,2013-01-28 08:40:00,
2013-01-28 01:21:00,37.0,27.0,30.12,NW,310,11.0,15.0,68,-99.99,,,-99.99,0.000000,,2013-01-28 09:21:00,
2013-01-28 01:32:00,37.0,27.0,30.12,NW,310,11.0,15.0,68,-99.99,,,-99.99,0.000000,,2013-01-28 09:32:00,
2013-01-28 01:40:00,36.0,28.0,30.14,NW,314,7.0,11.0,70,-99.99,,,-99.99,0.000000,,2013-01-28 09:40:00,
2013-01-28 02:31:00,36.0,28.0,30.14,NW,314,7.0,11.0,70,-99.99,,,-99.99,0.000000,,2013-01-28 10:31:00,
2013-01-28 02:40:00,37.0,28.0,30.13,WNW,299,9.0,12.0,68,-99.99,,,-99.99,0.000000,,2013-01-28 10:40:00,
2013-01-28 03:22:00,37.0,28.0,30.13,WNW,299,9.0,12.0,68,-99.99,,,-99.99,0.000000,,2013-01-28 11:22:00,
2013-01-28 03:32:00,37.0,28.0,30.13,WNW,299,9.0,12.0,68,-99.99,,,-99.99,0.000000,,2013-01-28 11:32:00,
2013-01-28 03:40:00,38.0,27.0,30.13,NNW,340,8.0,16.0,65,-99.99,,,-99.99,0.000000,,2013-01-28 11:40:00,
2013-01-28 04:23:00,38.0,27.0,30.13,NNW,340,8.0,16.0,65,-99.99,,,-99.99,0.000000,,2013-01-28 12:23:00,
2013-01-28 04:33:00,38.0,27.0,30.13,NNW,340,8.0,16.0,65,-99.99,,,-99.99,0.000000,,2013-01-28 12:33:00,
2013-01-28 04:40:00,38.0,25.0,30.12,NW,316,10.0,15.0,60,-99.99,,,-99.99,0.000000,,2013-01-28 12:40:00,
2013-01-28 05:22:00,38.0,25.0,30.12,NW,316,10.0,15.0,60,-99.99,,,-99.99,0.000000,,2013-01-28 13:22:00,
2013-01-28 05:33:00,38.0,25.0,30.12,NW,316,10.0,15.0,60,-99.99,,,-99.99,0.000000,,2013-01-28 13:33:00,
2013-01-28 05:40:00,38.0,25.0,30.12,NW,322,13.0,19.0,59,-99.99,,,-99.99,0.000000,,2013-01-28 13:40:00,
2013-01-28 06:22:00,38.0,25.0,30.12,NW,322,13.0,19.0,59,-99.99,,,-99.99,0.000000,,2013-01-28 14:22:00,
2013-01-28 06:32:00,38.0,25.0,30.12,NW,322,13.0,19.0,59,-99.99,,,-99.99,0.000000,,2013-01-28 14:32:00,
2013-01-28 06:40:00,37.0,27.0,30.13,NW,307,15.0,22.0,67,-99.99,,,-99.99,0.000000,,2013-01-28 14:40:00,
2013-01-28 07:23:00,37.0,27.0,30.13,NW,307,15.0,22.0,67,-99.99,,,-99.99,0.000000,,2013-01-28 15:23:00,
2013-01-28 07:33:00,37.0,27.0,30.13,NW,307,15.0,22.0,67,-99.99,,,-99.99,0.000000,,2013-01-28 15:33:00,
2013-01-28 07:40:00,38.0,26.0,30.15,NW,312,12.0,19.0,61,-99.99,,,-99.99,13.000000,,2013-01-28 15:40:00,
2013-01-28 08:22:00,38.0,26.0,30.15,NW,312,12.0,19.0,61,-99.99,,,-99.99,13.000000,,2013-01-28 16:22:00,
2013-01-28 08:32:00,38.0,26.0,30.15,NW,312,12.0,19.0,61,-99.99,,,-99.99,13.000000,,2013-01-28 16:32:00,
2013-01-28 08:40:00,40.0,28.0,30.16,NW,324,10.0,24.0,63,-99.99,,,-99.99,277.000000,,2013-01-28 16:40:00,
2013-01-28 09:22:00,40.0,28.0,30.16,NW,324,10.0,24.0,63,-99.99,,,-99.99,277.000000,,2013-01-28 17:22:00,
2013-01-28 09:32:00,40.0,28.0,30.16,NW,324,10.0,24.0,63,-99.99,,,-99.99,277.000000,,2013-01-28 17:32:00,
2013-01-28 09:40:00,41.0,34.0,30.18,NW,307,4.0,10.0,74,-99.99,,,-99.99,483.000000,,2013-01-28 17:40:00,
2013-01-28 10:23:00,41.0,34.0,30.18,NW,307,4.0,10.0,74,-99.99,,,-99.99,483.000000,,2013-01-28 18:23:00,
2013-01-28 10:33:00,41.0,34.0,30.18,NW,307,4.0,10.0,74,-99.99,,,-99.99,483.000000,,2013-01-28 18:33:00,
2013-01-28 10:40:00,42.0,38.0,30.19,West,274,7.0,11.0,85,-99.99,,,-99.99,489.000000,,2013-01-28 18:40:00,
2013-01-28 11:22:00,42.0,38.0,30.19,West,274,7.0,11.0,85,-99.99,,,-99.99,489.000000,,2013-01-28 19:22:00,
2013-01-28 11:32:00,42.0,38.0,30.19,West,274,7.0,11.0,85,-99.99,,,-99.99,489.000000,,2013-01-28 19:32:00,
2013-01-28 11:40:00,42.0,38.0,30.20,West,271,11.0,15.0,84,-99.99,,,-99.99,629.000000,,2013-01-28 19:40:00,
2013-01-28 12:22:00,42.0,38.0,30.20,West,271,11.0,15.0,84,-99.99,,,-99.99,629.000000,,2013-01-28 20:22:00,
2013-01-28 12:33:00,42.0,38.0,30.20,West,271,11.0,15.0,84,-99.99,,,-99.99,629.000000,,2013-01-28 20:33:00,
2013-01-28 12:40:00,43.0,38.0,30.19,West,279,12.0,18.0,83,-99.99,,,-99.99,592.000000,,2013-01-28 20:40:00,
2013-01-28 13:22:00,43.0,38.0,30.19,West,279,12.0,18.0,83,-99.99,,,-99.99,592.000000,,2013-01-28 21:22:00,
2013-01-28 13:33:00,43.0,38.0,30.19,West,279,12.0,18.0,83,-99.99,,,-99.99,592.000000,,2013-01-28 21:33:00,
2013-01-28 13:40:00,42.0,39.0,30.18,West,275,14.0,20.0,87,-99.99,,,-99.99,646.000000,,2013-01-28 21:40:00,
2013-01-28 14:22:00,42.0,39.0,30.18,West,275,14.0,20.0,87,-99.99,,,-99.99,646.000000,,2013-01-28 22:22:00,
2013-01-28 14:32:00,42.0,39.0,30.18,West,275,14.0,20.0,87,-99.99,,,-99.99,646.000000,,2013-01-28 22:32:00,
2013-01-28 14:40:00,43.0,39.0,30.19,West,266,10.0,15.0,86,-99.99,,,-99.99,477.000000,,2013-01-28 22:40:00,
2013-01-28 15:22:00,43.0,39.0,30.19,West,266,10.0,15.0,86,-99.99,,,-99.99,477.000000,,2013-01-28 23:22:00,
2013-01-28 15:32:00,43.0,39.0,30.19,West,266,10.0,15.0,86,-99.99,,,-99.99,477.000000,,2013-01-28 23:32:00,
2013-01-28 15:40:00,44.0,39.0,30.20,WNW,284,8.0,12.0,85,-99.99,,,-99.99,268.000000,,2013-01-28 23:40:00,
2013-01-28 16:22:00,44.0,39.0,30.20,WNW,284,8.0,12.0,85,-99.99,,,-99.99,268.000000,,2013-01-29 00:22:00,
2013-01-28 16:32:00,44.0,39.0,30.20,WNW,284,8.0,12.0,85,-99.99,,,-99.99,268.000000,,2013-01-29 00:32:00,
2013-01-28 16:40:00,43.0,39.0,30.20,West,280,6.0,9.0,87,-99.99,,,-99.99,104.000000,,2013-01-29 00:40:00,
2013-01-28 17:22:00,43.0,39.0,30.20,West,280,6.0,9.0,87,-99.99,,,-99.99,104.000000,,2013-01-29 01:22:00,
2013-01-28 17:32:00,43.0,39.0,30.20,West,280,6.0,9.0,87,-99.99,,,-99.99,104.000000,,2013-01-29 01:32:00,
2013-01-28 17:40:00,43.0,30.0,30.21,NW,325,6.0,11.0,61,-99.99,,,-99.99,5.000000,,2013-01-29 01:40:00,
2013-01-28 18:21:00,43.0,30.0,30.21,NW,325,6.0,11.0,61,-99.99,,,-99.99,5.000000,,2013-01-29 02:21:00,
2013-01-28 18:32:00,43.0,30.0,30.21,NW,325,6.0,11.0,61,-99.99,,,-99.99,5.000000,,2013-01-29 02:32:00,